Time;durP1;ratioP1;P1;durP2;ratioP2;P2;SDS_P1;SDS_P2;PMS_P1;PMS_P2;Temp;Humidity;BMP_temperature;BMP_pressure;BME280_temperature;BME280_humidity;BME280_pressure;Samples;Min_cycle;Max_cycle;Signal;HPM_P1;HPM_P2
2022/07/31 00:08:58;;;;;;;2.08;0.88;;;;;;;;;;20903391;28;20559;-72
2022/07/31 00:19:00;;;;;;;1.20;0.70;;;;;;;;;;20867302;28;20224;-72
2022/07/31 00:29:02;;;;;;;1.17;0.63;;;;;;;;;;20901727;28;20563;-72
2022/07/31 00:39:04;;;;;;;1.05;0.50;;;;;;;;;;20901575;28;20239;-72
2022/07/31 00:49:08;;;;;;;1.92;0.70;;;;;;;;;;20876430;28;20274;-72
2022/07/31 00:59:11;;;;;;;1.85;0.73;;;;;;;;;;20903765;28;20674;-72
2022/07/31 01:09:15;;;;;;;1.75;0.80;;;;;;;;;;20915047;28;20220;-72
2022/07/31 01:19:29;;;;;;;1.08;0.70;;;25.20;79.10;;;;;;20914449;28;20269;-72
2022/07/31 01:29:36;;;;;;;1.20;0.75;;;24.80;88.30;;;;;;20910908;28;20274;-72
2022/07/31 01:39:43;;;;;;;1.00;0.60;;;;;;;;;;20928068;22;20213;-66
2022/07/31 01:49:48;;;;;;;1.35;0.88;;;24.90;89.80;;;;;;20830410;28;20553;-68
2022/07/31 01:59:51;;;;;;;1.27;0.68;;;;;;;;;;20829055;28;20209;-70
2022/07/31 02:09:56;;;;;;;2.40;0.82;;;24.60;92.00;;;;;;20827801;28;20213;-71
2022/07/31 02:20:00;;;;;;;2.90;0.73;;;24.50;83.60;;;;;;20825787;28;20211;-70
2022/07/31 02:30:03;;;;;;;1.50;0.80;;;24.30;89.20;;;;;;20826642;28;20253;-70
2022/07/31 02:40:06;;;;;;;0.75;0.60;;;;;;;;;;20828594;28;20273;-70
2022/07/31 02:50:07;;;;;;;2.25;1.08;;;;;;;;;;20808456;28;20233;-70
2022/07/31 03:00:21;;;;;;;1.83;0.93;;;;;;;;;;20823498;28;20259;-70
2022/07/31 03:10:24;;;;;;;1.55;0.70;;;;;;;;;;20823539;28;20663;-71
2022/07/31 03:20:39;;;;;;;2.63;0.93;;;23.50;89.00;;;;;;20807067;28;20212;-70
2022/07/31 03:30:41;;;;;;;0.82;0.60;;;;;;;;;;20819635;28;20662;-71
2022/07/31 03:40:43;;;;;;;0.98;0.70;;;;;;;;;;20823459;28;20652;-70
2022/07/31 03:50:45;;;;;;;1.20;0.75;;;;;;;;;;20821252;28;20228;-71
2022/07/31 04:00:47;;;;;;;1.88;0.70;;;23.70;85.50;;;;;;20818422;28;20236;-70
2022/07/31 04:10:49;;;;;;;1.45;0.98;;;;;;;;;;20819757;28;20287;-70
2022/07/31 04:20:54;;;;;;;1.95;0.85;;;;;;;;;;20800987;28;20217;-71
2022/07/31 04:30:56;;;;;;;1.00;0.60;;;;;;;;;;20822196;28;20623;-71
2022/07/31 04:40:58;;;;;;;1.85;0.68;;;;;;;;;;20834505;28;20216;-70
2022/07/31 04:51:00;;;;;;;1.27;0.80;;;;;;;;;;20834391;28;20226;-71
2022/07/31 05:01:02;;;;;;;1.73;0.68;;;;;;;;;;20827793;28;20216;-70
2022/07/31 05:11:21;;;;;;;0.90;0.60;;;;;;;;;;20833130;28;20631;-70
2022/07/31 05:21:25;;;;;;;0.93;0.70;;;;;;;;;;20832975;28;20270;-70
2022/07/31 05:31:47;;;;;;;2.33;0.73;;;;;;;;;;20831662;28;20252;-70
2022/07/31 05:41:50;;;;;;;2.13;0.65;;;;;;;;;;20794307;28;20254;-70
2022/07/31 05:52:01;;;;;;;1.20;0.70;;;;;;;;;;20829682;28;20229;-71
2022/07/31 06:02:03;;;;;;;1.45;0.68;;;;;;;;;;20827714;28;20228;-69
2022/07/31 06:12:14;;;;;;;3.40;0.73;;;;;;;;;;20815767;28;20229;-70
2022/07/31 06:22:15;;;;;;;1.10;0.63;;;;;;;;;;20807269;28;20213;-70
2022/07/31 06:32:17;;;;;;;1.13;0.80;;;;;;;;;;20807285;28;20217;-70
2022/07/31 06:42:20;;;;;;;1.30;0.60;;;23.80;94.90;;;;;;20820559;28;20230;-70
2022/07/31 06:52:40;;;;;;;1.98;0.70;;;;;;;;;;20826923;28;20775;-70
2022/07/31 07:02:42;;;;;;;1.77;0.73;;;;;;;;;;20816806;28;20211;-71
2022/07/31 07:12:44;;;;;;;1.30;0.57;;;;;;;;;;20859275;28;20221;-70
2022/07/31 07:22:46;;;;;;;1.92;0.80;;;;;;;;;;20787595;28;20577;-71
2022/07/31 07:32:55;;;;;;;3.70;0.77;;;;;;;;;;20818600;28;20227;-70
2022/07/31 07:42:57;;;;;;;1.15;0.82;;;;;;;;;;20841029;23;20231;-71
2022/07/31 07:52:59;;;;;;;0.63;0.50;;;;;;;;;;20871558;28;20697;-71
2022/07/31 08:03:33;;;;;;;1.55;0.70;;;;;;;;;;20880861;28;20280;-71
2022/07/31 08:13:36;;;;;;;1.70;0.60;;;;;;;;;;20886015;28;20730;-71
2022/07/31 08:23:56;;;;;;;1.10;0.60;;;;;;;;;;20881447;28;20290;-71
2022/07/31 08:33:59;;;;;;;1.48;0.60;;;;;;;;;;20854775;28;20282;-74
2022/07/31 08:44:02;;;;;;;0.75;0.45;;;;;;;;;;20868217;28;20302;-75
2022/07/31 08:54:12;;;;;;;0.77;0.40;;;26.90;86.50;;;;;;20863697;28;20985;-71
2022/07/31 09:04:14;;;;;;;1.17;0.70;;;;;;;;;;20859633;28;20231;-71
2022/07/31 09:14:33;;;;;;;0.80;0.60;;;27.00;76.10;;;;;;20870081;28;20279;-70
2022/07/31 09:24:36;;;;;;;2.88;0.90;;;;;;;;;;20868759;28;20219;-71
2022/07/31 09:34:39;;;;;;;2.00;0.93;;;28.00;84.70;;;;;;20880845;28;20563;-71
2022/07/31 09:44:50;;;;;;;1.15;0.50;;;;;;;;;;20868314;28;20228;-71
2022/07/31 09:55:04;;;;;;;1.20;0.60;;;27.90;69.80;;;;;;20863843;28;20233;-72
2022/07/31 10:05:07;;;;;;;0.55;0.50;;;;;;;;;;20907111;28;20273;-71
2022/07/31 10:15:11;;;;;;;0.52;0.45;;;;;;;;;;20877226;28;20228;-71
2022/07/31 10:25:23;;;;;;;0.85;0.50;;;27.80;81.80;;;;;;20870020;28;20220;-71
2022/07/31 10:35:25;;;;;;;1.23;0.52;;;27.90;82.50;;;;;;20897249;28;20272;-71
2022/07/31 10:45:48;;;;;;;1.30;0.50;;;;;;;;;;20899228;28;20309;-70
2022/07/31 10:56:42;;;;;;;0.52;0.40;;;28.40;73.20;;;;;;20874174;28;20225;-71
2022/07/31 11:07:13;;;;;;;1.05;0.60;;;28.20;74.70;;;;;;20892687;28;20290;-71
2022/07/31 11:17:36;;;;;;;1.83;0.45;;;;;;;;;;20869985;28;20232;-71
2022/07/31 11:28:23;;;;;;;0.60;0.40;;;28.80;72.00;;;;;;20876191;28;20753;-71
2022/07/31 11:38:28;;;;;;;0.80;0.45;;;;;;;;;;20888313;28;20266;-71
2022/07/31 11:48:31;;;;;;;0.77;0.43;;;28.90;74.90;;;;;;20867418;28;20653;-71
2022/07/31 11:58:33;;;;;;;0.57;0.30;;;;;;;;;;20856364;28;20216;-71
2022/07/31 12:08:36;;;;;;;0.82;0.40;;;;;;;;;;20871141;28;20232;-71
2022/07/31 12:18:51;;;;;;;0.77;0.43;;;;;;;;;;20888716;28;20271;-71
2022/07/31 12:29:08;;;;;;;1.52;0.47;;;30.30;61.60;;;;;;20897626;28;20243;-71
2022/07/31 12:39:10;;;;;;;1.02;0.40;;;30.90;72.80;;;;;;20869355;28;20697;-72
2022/07/31 12:49:12;;;;;;;0.30;0.30;;;;;;;;;;20848252;28;20225;-71
2022/07/31 12:59:14;;;;;;;2.47;0.52;;;;;;;;;;20869426;28;20661;-72
2022/07/31 13:09:17;;;;;;;0.68;0.40;;;30.90;70.10;;;;;;20837043;28;20226;-71
2022/07/31 13:19:19;;;;;;;0.90;0.40;;;;;;;;;;20829550;28;20209;-71
2022/07/31 13:29:21;;;;;;;1.10;0.38;;;;;;;;;;20896226;28;20240;-70
2022/07/31 13:39:23;;;;;;;0.40;0.30;;;;;;;;;;20865735;28;20217;-70
2022/07/31 13:49:30;;;;;;;4.18;0.50;;;;;;;;;;20861387;28;20697;-70
2022/07/31 13:59:32;;;;;;;1.00;0.40;;;;;;;;;;20803928;22;20230;-70
2022/07/31 14:09:34;;;;;;;5.75;0.60;;;;;;;;;;20753690;28;20250;-70
2022/07/31 14:19:36;;;;;;;1.02;0.60;;;;;;;;;;20743851;28;20734;-71
2022/07/31 14:29:38;;;;;;;0.95;0.40;;;;;;;;;;20737284;28;20223;-71
2022/07/31 14:39:41;;;;;;;5.18;0.70;;;;;;;;;;20742716;28;20598;-73
2022/07/31 14:49:42;;;;;;;0.73;0.30;;;;;;;;;;20636959;28;20711;-71
2022/07/31 14:59:45;;;;;;;3.78;0.60;;;;;;;;;;20544502;28;20565;-72
2022/07/31 15:09:47;;;;;;;0.93;0.40;;;;;;;;;;20580347;28;20260;-72
2022/07/31 15:19:49;;;;;;;0.95;0.45;;;;;;;;;;20652354;28;20276;-72
2022/07/31 15:29:53;;;;;;;0.30;0.20;;;;;;;;;;20647364;28;20232;-72
2022/07/31 15:39:55;;;;;;;1.58;0.30;;;;;;;;;;20685708;28;20763;-72
2022/07/31 15:49:56;;;;;;;0.43;0.35;;;;;;;;;;20691146;28;20597;-72
2022/07/31 15:59:58;;;;;;;0.93;0.50;;;32.90;56.40;;;;;;20647728;28;20302;-72
2022/07/31 16:10:00;;;;;;;1.33;0.60;;;;;;;;;;20629462;28;20220;-73
2022/07/31 16:20:02;;;;;;;1.42;0.55;;;;;;;;;;20655179;28;20278;-71
2022/07/31 16:30:04;;;;;;;0.25;0.20;;;;;;;;;;20694141;28;20241;-71
2022/07/31 16:40:07;;;;;;;0.22;0.20;;;;;;;;;;20735326;28;20576;-72
2022/07/31 16:50:09;;;;;;;0.80;0.50;;;;;;;;;;20734580;28;20215;-72
2022/07/31 17:00:11;;;;;;;0.28;0.28;;;;;;;;;;20670951;28;20758;-72
2022/07/31 17:10:14;;;;;;;0.80;0.38;;;32.00;61.10;;;;;;20668553;28;20232;-71
2022/07/31 17:20:22;;;;;;;0.82;0.40;;;31.60;55.20;;;;;;20667519;28;20231;-72
2022/07/31 17:30:23;;;;;;;0.52;0.30;;;;;;;;;;20669377;28;20220;-71
2022/07/31 17:40:25;;;;;;;0.90;0.47;;;;;;;;;;20640924;28;20240;-72
2022/07/31 17:50:28;;;;;;;0.80;0.40;;;;;;;;;;20656440;28;20710;-72
2022/07/31 18:00:30;;;;;;;1.38;0.50;;;;;;;;;;20699849;28;20239;-73
2022/07/31 18:10:32;;;;;;;1.08;0.50;;;;;;;;;;20689830;28;20573;-73
2022/07/31 18:20:34;;;;;;;0.85;0.40;;;;;;;;;;20696060;28;20219;-73
2022/07/31 18:30:39;;;;;;;0.47;0.32;;;;;;;;;;20685316;28;20422;-73
2022/07/31 18:40:41;;;;;;;0.85;0.30;;;;;;;;;;20684821;28;20255;-73
2022/07/31 18:50:43;;;;;;;1.10;0.47;;;;;;;;;;20652597;28;20770;-73
2022/07/31 19:00:44;;;;;;;1.00;0.40;;;;;;;;;;20659344;28;20275;-73
2022/07/31 19:10:48;;;;;;;0.85;0.40;;;29.80;69.80;;;;;;20641754;28;20286;-73
2022/07/31 19:20:50;;;;;;;0.52;0.40;;;;;;;;;;20659285;28;20259;-73
2022/07/31 19:30:53;;;;;;;0.32;0.30;;;;;;;;;;20653015;28;20294;-73
2022/07/31 19:40:55;;;;;;;0.63;0.40;;;;;;;;;;20635125;28;20199;-73
2022/07/31 19:50:56;;;;;;;0.70;0.40;;;;;;;;;;20638735;28;20227;-73
2022/07/31 20:00:58;;;;;;;0.60;0.40;;;;;;;;;;20629033;28;20236;-73
2022/07/31 20:11:04;;;;;;;0.95;0.50;;;;;;;;;;20630540;28;20292;-72
2022/07/31 20:21:20;;;;;;;1.33;0.52;;;;;;;;;;20649565;28;20227;-72
2022/07/31 20:31:21;;;;;;;1.23;0.40;;;;;;;;;;20858498;23;20284;-71
2022/07/31 20:41:26;;;;;;;0.93;0.43;;;;;;;;;;20896178;28;20232;-70
2022/07/31 20:51:27;;;;;;;0.88;0.50;;;;;;;;;;20900770;28;20222;-70
2022/07/31 21:01:29;;;;;;;0.63;0.32;;;;;;;;;;20900261;28;20202;-70
2022/07/31 21:11:32;;;;;;;1.10;0.40;;;;;;;;;;20902458;28;20655;-70
2022/07/31 21:21:33;;;;;;;0.50;0.30;;;;;;;;;;20897647;28;20216;-70
2022/07/31 21:31:35;;;;;;;1.27;0.40;;;;;;;;;;20903423;28;20643;-70
2022/07/31 21:41:37;;;;;;;1.63;0.40;;;;;;;;;;20913798;28;20699;-70
2022/07/31 21:51:39;;;;;;;0.40;0.40;;;;;;;;;;20967543;28;20219;-70
2022/07/31 22:01:41;;;;;;;0.80;0.47;;;28.30;73.80;;;;;;20918952;28;20217;-70
2022/07/31 22:11:42;;;;;;;0.60;0.50;;;;;;;;;;20894611;28;20225;-70
2022/07/31 22:21:44;;;;;;;0.55;0.40;;;;;;;;;;20911348;28;20213;-70
2022/07/31 22:31:46;;;;;;;0.70;0.40;;;;;;;;;;20892090;28;20644;-70
2022/07/31 22:41:48;;;;;;;0.77;0.50;;;;;;;;;;20911044;28;20619;-70
2022/07/31 22:51:50;;;;;;;0.95;0.60;;;;;;;;;;20908541;28;20220;-70
2022/07/31 23:01:51;;;;;;;1.50;0.60;;;;;;;;;;20908903;28;20249;-70
2022/07/31 23:11:53;;;;;;;0.55;0.45;;;;;;;;;;20907415;28;20219;-70
2022/07/31 23:21:55;;;;;;;1.00;0.43;;;;;;;;;;20890661;28;20583;-70
2022/07/31 23:31:57;;;;;;;1.05;0.50;;;;;;;;;;20906624;28;20937;-70
2022/07/31 23:52:18;;;;;;;0.80;0.50;;;;;;;;;;20889834;28;20695;-70
